createdAt,value
2018-07-16T00:02:43.569Z,67.70
2018-07-16T00:05:12.760Z,67.50
2018-07-16T00:10:10.540Z,67.50
2018-07-16T00:12:39.325Z,67.50
2018-07-16T00:15:08.029Z,67.10
2018-07-16T00:17:36.801Z,66.90
2018-07-16T00:20:06.820Z,66.80
2018-07-16T00:22:35.517Z,67.00
2018-07-16T00:25:04.096Z,67.20
2018-07-16T00:27:32.695Z,68.00
2018-07-16T00:30:01.816Z,68.40
2018-07-16T00:32:31.392Z,68.50
2018-07-16T00:35:00.224Z,68.60
2018-07-16T00:37:28.804Z,68.50
2018-07-16T00:39:57.711Z,68.80
2018-07-16T00:42:26.524Z,69.10
2018-07-16T00:44:55.357Z,69.50
2018-07-16T00:47:24.019Z,69.40
2018-07-16T00:49:52.649Z,69.40
2018-07-16T00:52:21.815Z,69.80
2018-07-16T00:54:50.467Z,69.60
2018-07-16T00:57:19.125Z,69.50
2018-07-16T00:59:48.094Z,69.10
2018-07-16T01:02:17.447Z,69.20
2018-07-16T01:04:46.353Z,69.40
2018-07-16T01:07:15.029Z,69.50
2018-07-16T01:09:43.860Z,69.20
2018-07-16T01:12:12.577Z,69.10
2018-07-16T01:14:41.238Z,69.20
2018-07-16T01:17:10.184Z,70.00
2018-07-16T01:19:38.762Z,70.30
2018-07-16T01:22:07.375Z,70.30
2018-07-16T01:24:36.114Z,70.20
2018-07-16T01:27:05.006Z,70.00
2018-07-16T01:29:34.072Z,70.20
2018-07-16T01:32:03.272Z,70.10
2018-07-16T01:34:31.974Z,69.90
2018-07-16T01:37:00.700Z,69.90
2018-07-16T01:39:29.396Z,70.00
2018-07-16T01:41:58.050Z,70.10
2018-07-16T01:44:27.591Z,70.60
2018-07-16T01:49:24.571Z,70.40
2018-07-16T01:51:53.196Z,70.50
2018-07-16T01:54:22.641Z,70.70
2018-07-16T01:56:51.225Z,71.00
2018-07-16T01:59:20.082Z,70.30
2018-07-16T02:01:49.367Z,70.80
2018-07-16T02:04:17.995Z,71.00
2018-07-16T02:06:47.703Z,71.30
2018-07-16T02:09:16.620Z,71.20
2018-07-16T02:11:45.340Z,71.40
2018-07-16T02:14:13.997Z,71.00
2018-07-16T02:16:42.616Z,71.20
2018-07-16T02:19:11.613Z,71.50
2018-07-16T02:21:40.295Z,71.30
2018-07-16T02:24:09.335Z,71.20
2018-07-16T02:29:06.638Z,71.50
2018-07-16T02:31:35.721Z,71.60
2018-07-16T02:34:04.421Z,71.30
2018-07-16T02:36:32.962Z,71.50
2018-07-16T02:39:01.551Z,71.80
2018-07-16T02:41:30.148Z,71.80
2018-07-16T02:43:58.946Z,71.70
2018-07-16T02:46:27.599Z,71.50
2018-07-16T02:48:56.317Z,71.70
2018-07-16T02:51:24.924Z,71.60
2018-07-16T02:53:53.749Z,71.50
2018-07-16T02:56:22.608Z,71.60
2018-07-16T02:58:51.312Z,71.50
2018-07-16T03:01:19.864Z,71.80
2018-07-16T03:03:48.741Z,71.70
2018-07-16T03:06:17.487Z,72.00
2018-07-16T03:08:46.179Z,71.60
2018-07-16T03:11:14.759Z,71.70
2018-07-16T03:13:43.627Z,71.60
2018-07-16T03:16:12.220Z,71.60
2018-07-16T03:18:41.006Z,71.40
2018-07-16T03:21:09.527Z,71.40
2018-07-16T03:23:38.159Z,71.60
2018-07-16T03:26:06.726Z,71.50
2018-07-16T03:28:35.259Z,72.00
2018-07-16T03:31:04.258Z,72.00
2018-07-16T03:33:32.958Z,71.80
2018-07-16T03:36:01.659Z,71.70
2018-07-16T03:38:30.875Z,71.70
2018-07-16T03:40:59.638Z,71.60
2018-07-16T03:43:28.528Z,71.30
2018-07-16T03:45:57.063Z,71.00
2018-07-16T03:48:25.710Z,70.90
2018-07-16T03:50:54.254Z,70.50
2018-07-16T03:53:22.905Z,70.00
2018-07-16T03:55:52.109Z,69.90
2018-07-16T03:58:20.590Z,70.00
2018-07-16T04:00:49.460Z,70.00
2018-07-16T04:03:18.620Z,70.10
2018-07-16T04:08:15.471Z,71.20
2018-07-16T04:10:44.291Z,71.20
2018-07-16T04:13:12.871Z,71.50
2018-07-16T04:15:41.783Z,71.30
2018-07-16T04:18:15.708Z,71.00
2018-07-16T04:20:44.651Z,71.30
2018-07-16T04:23:13.503Z,71.40
2018-07-16T04:25:42.142Z,71.50
2018-07-16T04:28:11.050Z,71.40
2018-07-16T04:30:40.077Z,71.30
2018-07-16T04:33:09.514Z,71.50
2018-07-16T04:35:38.425Z,71.40
2018-07-16T04:38:07.433Z,71.60
2018-07-16T04:40:36.090Z,71.60
2018-07-16T04:43:04.909Z,71.80
2018-07-16T04:45:33.509Z,71.90
2018-07-16T04:48:02.040Z,72.30
2018-07-16T04:50:30.688Z,72.20
2018-07-16T04:52:59.501Z,72.20
2018-07-16T04:55:28.497Z,72.20
2018-07-16T04:57:57.384Z,71.90
2018-07-16T05:00:25.990Z,72.00
2018-07-16T05:02:54.772Z,71.80
2018-07-16T05:05:24.449Z,71.70
2018-07-16T05:07:53.295Z,71.80
2018-07-16T05:10:22.865Z,71.80
2018-07-16T05:12:51.730Z,71.50
2018-07-16T05:15:20.740Z,70.80
2018-07-16T05:17:49.542Z,70.40
2018-07-16T05:20:18.544Z,70.20
2018-07-16T05:22:47.441Z,70.40
2018-07-16T05:25:15.970Z,70.80
2018-07-16T05:27:44.576Z,70.40
2018-07-16T05:30:13.188Z,70.40
2018-07-16T05:32:41.954Z,69.60
2018-07-16T05:35:10.804Z,69.20
2018-07-16T05:37:39.897Z,69.10
2018-07-16T05:40:09.347Z,69.10
2018-07-16T05:42:38.112Z,69.20
2018-07-16T05:45:06.935Z,69.30
2018-07-16T05:47:36.703Z,68.90
2018-07-16T05:50:05.550Z,69.10
2018-07-16T05:52:34.695Z,69.00
2018-07-16T05:55:05.989Z,68.10
2018-07-16T05:57:35.447Z,67.80
2018-07-16T06:00:04.951Z,68.30
2018-07-16T06:02:33.744Z,68.20
2018-07-16T06:05:03.588Z,68.10
2018-07-16T06:10:01.737Z,68.70
2018-07-16T06:12:30.540Z,68.70
2018-07-16T06:15:00.598Z,68.40
2018-07-16T06:17:29.503Z,68.20
2018-07-16T06:19:58.505Z,68.40
2018-07-16T06:22:27.392Z,68.20
2018-07-16T06:24:56.849Z,67.90
2018-07-16T06:27:30.999Z,67.40
2018-07-16T06:29:59.690Z,67.10
2018-07-16T06:32:28.974Z,66.90
2018-07-16T06:34:59.311Z,66.60
2018-07-16T06:37:28.755Z,66.70
2018-07-16T06:39:58.362Z,66.80
2018-07-16T06:42:27.453Z,66.70
2018-07-16T06:44:57.407Z,66.30
2018-07-16T06:47:26.225Z,65.90
2018-07-16T06:49:54.844Z,65.90
2018-07-16T06:52:23.541Z,65.80
2018-07-16T06:54:52.622Z,65.80
2018-07-16T06:57:21.797Z,65.20
2018-07-16T06:59:50.411Z,64.60
2018-07-16T07:02:19.358Z,64.20
2018-07-16T07:04:49.297Z,64.10
2018-07-16T07:07:18.103Z,63.50
2018-07-16T07:09:47.574Z,63.10
2018-07-16T07:12:17.307Z,62.50
2018-07-16T07:14:46.421Z,62.50
2018-07-16T07:17:15.698Z,61.90
2018-07-16T07:19:44.363Z,61.60
2018-07-16T07:22:13.218Z,60.30
2018-07-16T07:24:42.029Z,60.40
2018-07-16T07:27:11.882Z,60.10
2018-07-16T07:29:41.113Z,59.60
2018-07-16T07:32:10.249Z,59.90
2018-07-16T07:34:38.943Z,60.20
2018-07-16T07:37:08.928Z,60.40
2018-07-16T07:39:37.990Z,60.70
2018-07-16T07:42:06.899Z,59.80
2018-07-16T07:44:36.495Z,59.90
2018-07-16T07:47:05.181Z,60.50
2018-07-16T07:49:34.188Z,60.30
2018-07-16T07:52:03.235Z,60.30
2018-07-16T07:54:32.230Z,60.80
2018-07-16T07:57:00.916Z,61.70
2018-07-16T07:59:29.556Z,62.50
2018-07-16T08:01:59.927Z,62.00
2018-07-16T08:04:28.495Z,62.40
2018-07-16T08:09:31.274Z,63.80
2018-07-16T08:12:00.090Z,63.80
2018-07-16T08:14:29.136Z,63.70
2018-07-16T08:16:58.641Z,63.80
2018-07-16T08:19:27.271Z,63.70
2018-07-16T08:21:55.873Z,63.80
2018-07-16T08:24:24.545Z,64.70
2018-07-16T08:26:53.525Z,65.30
2018-07-16T08:29:22.236Z,64.50
2018-07-16T08:31:51.249Z,63.60
2018-07-16T08:34:19.976Z,63.60
2018-07-16T08:36:49.239Z,64.30
2018-07-16T08:39:17.963Z,64.30
2018-07-16T08:41:47.019Z,64.60
2018-07-16T08:44:15.779Z,64.40
2018-07-16T08:46:44.751Z,64.00
2018-07-16T08:49:14.276Z,65.70
2018-07-16T08:51:43.275Z,66.50
2018-07-16T08:54:11.867Z,67.20
2018-07-16T08:56:40.962Z,67.90
2018-07-16T08:59:10.200Z,68.70
2018-07-16T09:01:38.863Z,67.90
2018-07-16T09:04:08.571Z,67.90
2018-07-16T09:06:38.286Z,67.50
2018-07-16T09:09:07.427Z,67.10
2018-07-16T09:11:36.760Z,66.90
2018-07-16T09:14:05.577Z,66.00
2018-07-16T09:16:34.182Z,66.40
2018-07-16T09:19:02.812Z,66.10
2018-07-16T09:21:32.341Z,65.70
2018-07-16T09:24:01.513Z,65.40
2018-07-16T09:26:31.191Z,66.40
2018-07-16T09:29:01.297Z,66.40
2018-07-16T09:31:30.382Z,65.90
2018-07-16T09:33:59.426Z,65.40
2018-07-16T09:36:28.843Z,65.70
2018-07-16T09:38:57.615Z,65.30
2018-07-16T09:41:26.451Z,65.00
2018-07-16T09:46:24.503Z,64.80
2018-07-16T09:48:53.352Z,65.80
2018-07-16T09:51:22.629Z,65.50
2018-07-16T09:53:52.112Z,65.30
2018-07-16T09:56:21.567Z,65.50
2018-07-16T09:58:50.839Z,65.00
2018-07-16T10:01:25.024Z,63.70
2018-07-16T10:03:54.415Z,63.50
2018-07-16T10:06:23.618Z,63.70
2018-07-16T10:08:53.172Z,63.10
2018-07-16T10:11:22.350Z,61.40
2018-07-16T10:13:51.553Z,60.10
2018-07-16T10:16:21.378Z,60.90
2018-07-16T10:18:50.375Z,61.30
2018-07-16T10:21:20.390Z,60.90
2018-07-16T10:23:49.556Z,60.80
2018-07-16T10:26:18.917Z,60.60
2018-07-16T10:28:48.079Z,59.50
2018-07-16T10:31:17.075Z,59.00
2018-07-16T10:33:46.539Z,59.10
2018-07-16T10:36:15.471Z,57.90
2018-07-16T10:38:44.040Z,57.70
2018-07-16T10:41:13.372Z,58.70
2018-07-16T10:43:43.097Z,58.50
2018-07-16T10:46:12.516Z,58.50
2018-07-16T10:48:41.089Z,58.40
2018-07-16T10:51:09.897Z,58.10
2018-07-16T10:53:38.545Z,58.30
2018-07-16T10:56:08.011Z,58.30
2018-07-16T10:58:36.852Z,58.30
2018-07-16T11:01:06.766Z,58.00
2018-07-16T11:03:35.377Z,57.60
2018-07-16T11:06:09.639Z,56.40
2018-07-16T11:08:38.822Z,56.00
2018-07-16T11:11:08.436Z,55.80
2018-07-16T11:13:37.735Z,56.40
2018-07-16T11:16:07.106Z,56.20
2018-07-16T11:21:04.998Z,56.00
2018-07-16T11:23:34.324Z,55.20
2018-07-16T11:26:03.463Z,55.30
2018-07-16T11:28:32.128Z,53.10
2018-07-16T11:31:00.959Z,54.10
2018-07-16T11:33:29.729Z,53.80
2018-07-16T11:35:58.536Z,53.50
2018-07-16T11:38:27.229Z,53.90
2018-07-16T11:40:55.821Z,53.80
2018-07-16T11:43:24.852Z,54.40
2018-07-16T11:45:53.552Z,54.00
2018-07-16T11:48:22.209Z,53.90
2018-07-16T11:50:51.255Z,54.40
2018-07-16T11:53:20.113Z,54.80
2018-07-16T11:55:48.847Z,54.40
2018-07-16T11:58:18.443Z,53.60
2018-07-16T12:00:47.095Z,54.00
2018-07-16T12:03:15.917Z,54.60
2018-07-16T12:05:44.914Z,54.50
2018-07-16T12:08:13.729Z,55.20
2018-07-16T12:10:42.487Z,54.90
2018-07-16T12:13:11.794Z,55.00
2018-07-16T12:18:08.823Z,55.00
2018-07-16T12:20:37.581Z,54.70
2018-07-16T12:23:06.480Z,54.50
2018-07-16T12:25:35.375Z,54.10
2018-07-16T12:28:04.399Z,54.10
2018-07-16T12:30:33.907Z,54.10
2018-07-16T12:33:02.604Z,53.70
2018-07-16T12:35:31.283Z,54.10
2018-07-16T12:38:00.739Z,54.00
2018-07-16T12:40:29.344Z,54.40
2018-07-16T12:42:58.283Z,53.50
2018-07-16T12:45:27.071Z,53.60
2018-07-16T12:47:55.638Z,53.80
2018-07-16T12:50:24.387Z,53.60
2018-07-16T12:52:53.096Z,53.50
2018-07-16T12:55:21.837Z,53.20
2018-07-16T12:57:51.190Z,52.70
2018-07-16T13:00:19.975Z,53.80
2018-07-16T13:02:48.704Z,52.90
2018-07-16T13:05:18.376Z,53.40
2018-07-16T13:07:48.035Z,53.80
2018-07-16T13:10:17.144Z,53.10
2018-07-16T13:12:46.110Z,53.50
2018-07-16T13:15:15.067Z,53.50
2018-07-16T13:17:44.094Z,53.30
2018-07-16T13:20:12.733Z,53.20
2018-07-16T13:22:41.841Z,52.90
2018-07-16T13:25:10.718Z,51.80
2018-07-16T13:27:39.404Z,52.80
2018-07-16T13:30:08.878Z,52.80
2018-07-16T13:32:37.989Z,52.80
2018-07-16T13:35:06.945Z,52.70
2018-07-16T13:37:36.100Z,53.00
2018-07-16T13:40:05.198Z,53.10
2018-07-16T13:42:34.444Z,53.40
2018-07-16T13:45:03.559Z,52.60
2018-07-16T13:47:33.926Z,53.20
2018-07-16T13:50:02.806Z,53.10
2018-07-16T13:52:32.374Z,52.10
2018-07-16T13:55:01.286Z,52.10
2018-07-16T13:57:30.636Z,52.10
2018-07-16T14:00:00.141Z,51.70
2018-07-16T14:02:28.991Z,51.20
2018-07-16T14:04:59.177Z,51.20
2018-07-16T14:07:28.604Z,51.00
2018-07-16T14:09:57.181Z,51.40
2018-07-16T14:12:26.636Z,50.80
2018-07-16T14:14:55.535Z,51.10
2018-07-16T14:17:24.199Z,50.80
2018-07-16T14:19:56.049Z,50.20
2018-07-16T14:22:24.922Z,50.10
2018-07-16T14:24:53.916Z,49.30
2018-07-16T14:27:24.549Z,48.10
2018-07-16T14:29:53.851Z,48.20
2018-07-16T14:32:23.506Z,48.80
2018-07-16T14:34:52.348Z,47.80
2018-07-16T14:37:21.239Z,48.40
2018-07-16T14:39:49.977Z,47.70
2018-07-16T14:42:18.611Z,47.40
2018-07-16T14:44:47.572Z,48.20
2018-07-16T14:47:16.171Z,48.60
2018-07-16T14:49:44.855Z,49.30
2018-07-16T14:52:13.645Z,49.10
2018-07-16T14:54:42.553Z,49.00
2018-07-16T14:57:12.002Z,49.80
2018-07-16T14:59:40.646Z,50.10
2018-07-16T15:02:10.525Z,49.10
2018-07-16T15:04:39.161Z,48.60
2018-07-16T15:07:07.839Z,49.30
2018-07-16T15:09:37.189Z,49.30
2018-07-16T15:12:06.017Z,47.40
2018-07-16T15:14:35.768Z,46.40
2018-07-16T15:17:05.941Z,46.90
2018-07-16T15:19:35.072Z,46.80
2018-07-16T15:22:04.717Z,48.10
2018-07-16T15:24:33.851Z,48.50
2018-07-16T15:27:03.995Z,49.30
2018-07-16T15:29:33.470Z,49.10
2018-07-16T15:32:03.311Z,49.40
2018-07-16T15:34:33.032Z,49.40
2018-07-16T15:37:01.963Z,49.60
2018-07-16T15:39:31.700Z,50.00
2018-07-16T15:42:00.748Z,50.30
2018-07-16T15:44:30.722Z,50.40
2018-07-16T15:46:59.772Z,50.40
2018-07-16T15:49:30.119Z,50.40
2018-07-16T15:51:59.462Z,50.50
2018-07-16T15:54:28.607Z,50.60
2018-07-16T15:56:57.839Z,50.60
2018-07-16T15:59:26.935Z,51.00
2018-07-16T16:01:55.602Z,51.10
2018-07-16T16:04:24.354Z,52.10
2018-07-16T16:06:53.560Z,52.50
2018-07-16T16:09:22.618Z,52.80
2018-07-16T16:11:51.808Z,53.30
2018-07-16T16:14:21.347Z,54.40
2018-07-16T16:16:50.831Z,55.00
2018-07-16T16:19:19.923Z,56.10
2018-07-16T16:21:49.135Z,56.40
2018-07-16T16:24:18.435Z,56.90
2018-07-16T16:26:48.137Z,58.70
2018-07-16T16:29:17.332Z,58.20
2018-07-16T16:31:46.445Z,60.90
2018-07-16T16:34:16.191Z,61.40
2018-07-16T16:36:44.849Z,61.40
2018-07-16T16:39:15.819Z,62.10
2018-07-16T16:44:13.643Z,61.50
2018-07-16T16:46:42.729Z,61.50
2018-07-16T16:49:11.809Z,61.30
2018-07-16T16:51:40.982Z,61.50
2018-07-16T16:54:10.671Z,61.50
2018-07-16T16:56:40.967Z,62.10
2018-07-16T16:59:10.673Z,63.50
2018-07-16T17:01:40.069Z,63.10
2018-07-16T17:04:09.799Z,63.40
2018-07-16T17:06:38.891Z,64.20
2018-07-16T17:09:08.330Z,64.30
2018-07-16T17:11:38.888Z,64.00
2018-07-16T17:14:07.833Z,64.30
2018-07-16T17:16:37.901Z,64.80
2018-07-16T17:19:07.339Z,65.10
2018-07-16T17:21:37.686Z,65.00
2018-07-16T17:24:06.250Z,64.80
2018-07-16T17:26:36.473Z,64.60
2018-07-16T17:29:05.550Z,64.50
2018-07-16T17:31:34.416Z,63.90
2018-07-16T17:34:04.565Z,64.10
2018-07-16T17:36:33.387Z,63.80
2018-07-16T17:39:02.236Z,64.60
2018-07-16T17:41:31.960Z,65.40
2018-07-16T17:44:00.819Z,65.00
2018-07-16T17:46:29.683Z,64.90
2018-07-16T17:48:58.227Z,64.30
2018-07-16T17:51:26.990Z,64.20
2018-07-16T17:53:55.593Z,65.20
2018-07-16T17:56:24.200Z,65.30
2018-07-16T17:58:53.103Z,64.70
2018-07-16T18:01:22.022Z,64.30
2018-07-16T18:03:51.121Z,65.80
2018-07-16T18:06:19.971Z,65.30
2018-07-16T18:08:48.594Z,64.60
2018-07-16T18:11:17.472Z,65.70
2018-07-16T18:13:46.483Z,65.40
2018-07-16T18:16:15.351Z,65.60
2018-07-16T18:18:44.617Z,65.70
2018-07-16T18:21:13.707Z,65.50
2018-07-16T18:23:42.486Z,65.00
2018-07-16T18:26:11.437Z,64.80
2018-07-16T18:28:40.190Z,64.20
2018-07-16T18:31:09.910Z,63.60
2018-07-16T18:33:41.111Z,62.70
2018-07-16T18:36:10.592Z,62.90
2018-07-16T18:38:39.232Z,62.80
2018-07-16T18:41:08.111Z,63.20
2018-07-16T18:43:37.103Z,63.40
2018-07-16T18:46:05.672Z,63.70
2018-07-16T18:48:34.383Z,63.50
2018-07-16T18:51:03.101Z,63.20
2018-07-16T18:53:32.624Z,63.20
2018-07-16T18:56:01.951Z,63.50
2018-07-16T18:58:30.751Z,63.80
2018-07-16T19:00:59.555Z,65.30
2018-07-16T19:03:28.634Z,65.90
2018-07-16T19:05:57.483Z,66.10
2018-07-16T19:08:26.226Z,65.10
2018-07-16T19:10:54.842Z,64.90
2018-07-16T19:13:23.724Z,65.10
2018-07-16T19:15:52.423Z,65.60
2018-07-16T19:18:21.047Z,65.80
2018-07-16T19:20:49.764Z,65.80
2018-07-16T19:23:18.416Z,66.10
2018-07-16T19:25:47.364Z,66.50
2018-07-16T19:28:15.915Z,66.00
2018-07-16T19:30:44.909Z,66.00
2018-07-16T19:33:13.472Z,66.00
2018-07-16T19:35:42.482Z,66.50
2018-07-16T19:38:11.326Z,66.90
2018-07-16T19:40:39.968Z,67.00
2018-07-16T19:43:08.850Z,67.10
2018-07-16T19:45:37.941Z,67.10
2018-07-16T19:48:06.965Z,66.60
2018-07-16T19:50:35.609Z,66.50
2018-07-16T19:53:04.231Z,66.40
2018-07-16T19:55:32.871Z,67.00
2018-07-16T19:58:02.421Z,65.90
2018-07-16T20:00:31.942Z,65.60
2018-07-16T20:03:00.422Z,66.00
2018-07-16T20:05:29.102Z,65.80
2018-07-16T20:07:58.080Z,65.50
2018-07-16T20:10:26.832Z,65.00
2018-07-16T20:26:30.389Z,65.00
2018-07-16T20:28:59.133Z,65.00
2018-07-16T20:31:27.753Z,69.60
2018-07-16T20:33:56.904Z,68.70
2018-07-16T20:36:25.736Z,67.20
2018-07-16T20:38:55.040Z,66.40
2018-07-16T20:41:23.945Z,65.80
2018-07-16T20:43:52.571Z,65.70
2018-07-16T20:46:21.419Z,65.60
2018-07-16T20:48:50.382Z,65.50
2018-07-16T20:51:19.296Z,65.50
2018-07-16T20:53:48.191Z,65.30
2018-07-16T20:56:17.933Z,65.70
2018-07-16T20:58:47.303Z,65.70
2018-07-16T21:01:16.652Z,65.90
2018-07-16T21:03:45.286Z,66.10
2018-07-16T21:06:13.984Z,65.80
2018-07-16T21:08:42.966Z,65.90
2018-07-16T21:11:12.380Z,65.90
2018-07-16T21:16:09.480Z,65.30
2018-07-16T21:18:38.488Z,65.10
2018-07-16T21:21:08.052Z,65.10
2018-07-16T21:23:37.102Z,65.10
2018-07-16T21:26:05.831Z,65.20
2018-07-16T21:28:36.255Z,65.40
2018-07-16T21:31:05.046Z,65.30
2018-07-16T21:33:34.586Z,65.40
2018-07-16T21:36:04.111Z,65.60
2018-07-16T21:38:32.848Z,65.90
2018-07-16T21:41:01.858Z,66.80
2018-07-16T21:43:30.578Z,66.20
2018-07-16T21:45:59.672Z,66.30
2018-07-16T21:48:28.313Z,66.30
2018-07-16T21:50:57.360Z,66.30
2018-07-16T21:53:25.966Z,66.30
2018-07-16T21:55:54.835Z,66.30
2018-07-16T21:58:23.786Z,66.20
2018-07-16T22:00:52.782Z,66.20
2018-07-16T22:03:21.591Z,65.90
2018-07-16T22:05:50.187Z,65.70
2018-07-16T22:08:18.778Z,65.90
2018-07-16T22:10:47.569Z,65.80
2018-07-16T22:13:16.138Z,65.80
2018-07-16T22:15:44.680Z,65.80
2018-07-16T22:18:13.524Z,65.80
2018-07-16T22:20:42.522Z,65.90
2018-07-16T22:23:11.600Z,65.70
2018-07-16T22:25:40.714Z,65.90
2018-07-16T22:28:09.243Z,66.00
2018-07-16T22:30:37.927Z,65.90
2018-07-16T22:33:06.921Z,65.80
2018-07-16T22:35:35.789Z,65.90
2018-07-16T22:38:04.373Z,66.00
2018-07-16T22:43:01.357Z,65.40
2018-07-16T22:45:30.170Z,64.70
2018-07-16T22:47:58.994Z,65.10
2018-07-16T22:50:27.832Z,66.10
2018-07-16T22:52:56.404Z,65.20
2018-07-16T22:55:24.981Z,65.20
2018-07-16T22:57:53.559Z,65.20
2018-07-16T23:02:50.872Z,65.20
2018-07-16T23:05:19.480Z,65.40
2018-07-16T23:07:48.059Z,65.40
2018-07-16T23:10:16.701Z,66.00
2018-07-16T23:12:45.571Z,65.00
2018-07-16T23:15:14.215Z,65.00
2018-07-16T23:17:42.850Z,65.00
2018-07-16T23:20:12.066Z,65.40
2018-07-16T23:22:50.949Z,65.30
2018-07-16T23:25:19.968Z,65.30
2018-07-16T23:27:49.320Z,65.40
2018-07-16T23:30:18.112Z,65.50
2018-07-16T23:32:46.892Z,65.50
2018-07-16T23:35:16.712Z,65.60
2018-07-16T23:37:45.273Z,65.70
2018-07-16T23:40:13.792Z,65.50
2018-07-16T23:42:42.876Z,65.70
2018-07-16T23:45:11.848Z,66.00
2018-07-16T23:47:40.715Z,65.70
2018-07-16T23:50:09.314Z,65.70
2018-07-16T23:52:37.877Z,65.70
2018-07-16T23:57:35.001Z,65.60
